sensor_id;sensor_type;location;lat;lon;timestamp;pressure;altitude;pressure_sealevel;temperature;humidity
11038;BME280;5572;49.540;11.932;2023-07-13T00:00:46;95356.41;;;21.23;100.00
11038;BME280;5572;49.540;11.932;2023-07-13T00:03:14;95343.47;;;21.27;100.00
11038;BME280;5572;49.540;11.932;2023-07-13T00:05:40;95356.03;;;21.28;100.00
11038;BME280;5572;49.540;11.932;2023-07-13T00:08:07;95356.81;;;21.29;100.00
11038;BME280;5572;49.540;11.932;2023-07-13T00:10:39;95367.09;;;21.42;100.00
11038;BME280;5572;49.540;11.932;2023-07-13T00:13:06;95359.16;;;21.27;100.00
11038;BME280;5572;49.540;11.932;2023-07-13T00:15:32;95347.69;;;21.07;100.00
11038;BME280;5572;49.540;11.932;2023-07-13T00:18:00;95339.88;;;21.20;100.00
11038;BME280;5572;49.540;11.932;2023-07-13T00:20:28;95341.06;;;21.19;100.00
11038;BME280;5572;49.540;11.932;2023-07-13T00:22:55;95335.94;;;21.14;100.00
11038;BME280;5572;49.540;11.932;2023-07-13T00:25:22;95323.78;;;21.15;100.00
11038;BME280;5572;49.540;11.932;2023-07-13T00:27:53;95330.81;;;21.09;100.00
11038;BME280;5572;49.540;11.932;2023-07-13T00:30:20;95324.03;;;20.92;100.00
11038;BME280;5572;49.540;11.932;2023-07-13T00:32:47;95313.84;;;20.93;100.00
11038;BME280;5572;49.540;11.932;2023-07-13T00:35:14;95313.81;;;20.86;100.00
11038;BME280;5572;49.540;11.932;2023-07-13T00:37:43;95303.63;;;20.90;100.00
11038;BME280;5572;49.540;11.932;2023-07-13T00:40:11;95317.34;;;20.90;100.00
11038;BME280;5572;49.540;11.932;2023-07-13T00:42:38;95302.78;;;20.82;100.00
11038;BME280;5572;49.540;11.932;2023-07-13T00:46:02;95300.88;;;20.93;100.00
11038;BME280;5572;49.540;11.932;2023-07-13T00:47:53;95285.13;;;20.80;100.00
11038;BME280;5572;49.540;11.932;2023-07-13T00:50:21;95294.06;;;20.74;100.00
11038;BME280;5572;49.540;11.932;2023-07-13T00:52:52;95275.66;;;20.74;100.00
11038;BME280;5572;49.540;11.932;2023-07-13T00:55:20;95276.84;;;20.77;100.00
11038;BME280;5572;49.540;11.932;2023-07-13T00:57:47;95271.69;;;20.72;100.00
11038;BME280;5572;49.540;11.932;2023-07-13T01:00:14;95272.38;;;20.51;100.00
11038;BME280;5572;49.540;11.932;2023-07-13T01:02:44;95266.09;;;20.51;100.00
11038;BME280;5572;49.540;11.932;2023-07-13T01:05:12;95256.63;;;20.45;100.00
11038;BME280;5572;49.540;11.932;2023-07-13T01:07:41;95269.53;;;20.37;100.00
11038;BME280;5572;49.540;11.932;2023-07-13T01:10:11;95279.78;;;20.44;100.00
11038;BME280;5572;49.540;11.932;2023-07-13T01:12:37;95284.91;;;20.45;100.00
11038;BME280;5572;49.540;11.932;2023-07-13T01:15:05;95283.94;;;20.24;100.00
11038;BME280;5572;49.540;11.932;2023-07-13T01:17:33;95273.69;;;20.17;100.00
11038;BME280;5572;49.540;11.932;2023-07-13T01:20:00;95269.69;;;20.04;100.00
11038;BME280;5572;49.540;11.932;2023-07-13T01:22:28;95275.53;;;20.03;100.00
11038;BME280;5572;49.540;11.932;2023-07-13T01:24:57;95256.75;;;20.05;100.00
11038;BME280;5572;49.540;11.932;2023-07-13T01:27:25;95259.75;;;19.93;100.00
11038;BME280;5572;49.540;11.932;2023-07-13T01:29:53;95269.03;;;19.78;100.00
11038;BME280;5572;49.540;11.932;2023-07-13T01:32:29;95261.50;;;19.68;100.00
11038;BME280;5572;49.540;11.932;2023-07-13T01:34:57;95277.25;;;19.75;100.00
11038;BME280;5572;49.540;11.932;2023-07-13T01:37:25;95276.38;;;19.67;100.00
11038;BME280;5572;49.540;11.932;2023-07-13T01:39:53;95284.09;;;19.55;100.00
11038;BME280;5572;49.540;11.932;2023-07-13T01:42:20;95290.78;;;19.57;100.00
11038;BME280;5572;49.540;11.932;2023-07-13T01:44:46;95292.88;;;19.74;100.00
11038;BME280;5572;49.540;11.932;2023-07-13T01:47:13;95303.66;;;19.53;100.00
11038;BME280;5572;49.540;11.932;2023-07-13T01:49:39;95300.88;;;19.50;100.00
11038;BME280;5572;49.540;11.932;2023-07-13T01:52:07;95303.53;;;19.43;100.00
11038;BME280;5572;49.540;11.932;2023-07-13T01:54:33;95303.53;;;19.43;100.00
11038;BME280;5572;49.540;11.932;2023-07-13T01:57:01;95305.31;;;19.25;100.00
11038;BME280;5572;49.540;11.932;2023-07-13T01:59:28;95305.47;;;19.09;100.00
11038;BME280;5572;49.540;11.932;2023-07-13T02:01:55;95301.63;;;19.10;100.00
11038;BME280;5572;49.540;11.932;2023-07-13T02:04:22;95312.69;;;19.21;100.00
11038;BME280;5572;49.540;11.932;2023-07-13T02:06:48;95316.91;;;18.86;100.00
11038;BME280;5572;49.540;11.932;2023-07-13T02:09:15;95320.16;;;18.95;100.00
11038;BME280;5572;49.540;11.932;2023-07-13T02:11:41;95320.66;;;18.74;100.00
11038;BME280;5572;49.540;11.932;2023-07-13T02:14:09;95328.72;;;18.90;100.00
11038;BME280;5572;49.540;11.932;2023-07-13T02:16:36;95317.19;;;18.51;100.00
11038;BME280;5572;49.540;11.932;2023-07-13T02:19:03;95312.94;;;18.28;100.00
11038;BME280;5572;49.540;11.932;2023-07-13T02:21:31;95308.78;;;18.15;100.00
11038;BME280;5572;49.540;11.932;2023-07-13T02:23:58;95295.25;;;18.22;100.00
11038;BME280;5572;49.540;11.932;2023-07-13T02:26:25;95295.06;;;18.12;100.00
11038;BME280;5572;49.540;11.932;2023-07-13T02:28:51;95281.97;;;17.98;100.00
11038;BME280;5572;49.540;11.932;2023-07-13T02:31:19;95286.16;;;17.92;100.00
11038;BME280;5572;49.540;11.932;2023-07-13T02:33:46;95269.88;;;17.77;100.00
11038;BME280;5572;49.540;11.932;2023-07-13T02:36:12;95268.13;;;17.65;100.00
11038;BME280;5572;49.540;11.932;2023-07-13T02:38:42;95250.78;;;18.03;100.00
11038;BME280;5572;49.540;11.932;2023-07-13T02:41:09;95261.81;;;18.10;100.00
11038;BME280;5572;49.540;11.932;2023-07-13T02:43:37;95265.50;;;17.95;100.00
11038;BME280;5572;49.540;11.932;2023-07-13T02:46:04;95267.94;;;17.77;100.00
11038;BME280;5572;49.540;11.932;2023-07-13T02:48:33;95269.59;;;17.59;100.00
11038;BME280;5572;49.540;11.932;2023-07-13T02:51:00;95261.63;;;17.73;100.00
11038;BME280;5572;49.540;11.932;2023-07-13T02:53:26;95193.22;;;17.70;100.00
11038;BME280;5572;49.540;11.932;2023-07-13T02:55:53;95189.59;;;17.62;100.00
11038;BME280;5572;49.540;11.932;2023-07-13T02:58:19;95179.84;;;17.61;100.00
11038;BME280;5572;49.540;11.932;2023-07-13T03:00:47;95181.97;;;17.49;100.00
11038;BME280;5572;49.540;11.932;2023-07-13T03:03:15;95178.41;;;17.45;100.00
11038;BME280;5572;49.540;11.932;2023-07-13T03:05:44;95170.25;;;17.48;100.00
11038;BME280;5572;49.540;11.932;2023-07-13T03:08:16;95171.88;;;17.53;100.00
11038;BME280;5572;49.540;11.932;2023-07-13T03:10:43;95172.78;;;17.38;100.00
11038;BME280;5572;49.540;11.932;2023-07-13T03:13:09;95176.53;;;17.08;100.00
11038;BME280;5572;49.540;11.932;2023-07-13T03:15:36;95174.91;;;17.03;100.00
11038;BME280;5572;49.540;11.932;2023-07-13T03:18:02;95179.16;;;17.01;100.00
11038;BME280;5572;49.540;11.932;2023-07-13T03:20:32;95177.31;;;17.08;100.00
11038;BME280;5572;49.540;11.932;2023-07-13T03:23:00;95183.31;;;16.95;100.00
11038;BME280;5572;49.540;11.932;2023-07-13T03:25:28;95182.38;;;17.06;100.00
11038;BME280;5572;49.540;11.932;2023-07-13T03:27:54;95197.22;;;16.86;100.00
11038;BME280;5572;49.540;11.932;2023-07-13T03:30:21;95191.81;;;16.90;100.00
11038;BME280;5572;49.540;11.932;2023-07-13T03:32:48;95193.41;;;16.91;100.00
11038;BME280;5572;49.540;11.932;2023-07-13T03:35:15;95199.84;;;16.83;100.00
11038;BME280;5572;49.540;11.932;2023-07-13T03:37:41;95220.28;;;16.70;100.00
11038;BME280;5572;49.540;11.932;2023-07-13T03:40:11;95213.44;;;16.79;100.00
11038;BME280;5572;49.540;11.932;2023-07-13T03:42:38;95226.53;;;16.70;100.00
11038;BME280;5572;49.540;11.932;2023-07-13T03:45:05;95224.72;;;16.78;100.00
11038;BME280;5572;49.540;11.932;2023-07-13T03:47:32;95238.38;;;16.78;100.00
11038;BME280;5572;49.540;11.932;2023-07-13T03:49:59;95248.00;;;16.91;100.00
11038;BME280;5572;49.540;11.932;2023-07-13T03:52:25;95263.69;;;16.97;100.00
11038;BME280;5572;49.540;11.932;2023-07-13T03:54:52;95270.47;;;17.03;100.00
11038;BME280;5572;49.540;11.932;2023-07-13T03:57:20;95291.13;;;17.23;100.00
11038;BME280;5572;49.540;11.932;2023-07-13T03:59:47;95296.66;;;17.45;100.00
11038;BME280;5572;49.540;11.932;2023-07-13T04:02:14;95315.63;;;17.57;100.00
11038;BME280;5572;49.540;11.932;2023-07-13T04:04:40;95318.41;;;17.83;100.00
11038;BME280;5572;49.540;11.932;2023-07-13T04:07:07;95325.94;;;18.12;100.00
11038;BME280;5572;49.540;11.932;2023-07-13T04:09:34;95332.91;;;18.32;100.00
11038;BME280;5572;49.540;11.932;2023-07-13T04:12:00;95353.66;;;18.33;100.00
11038;BME280;5572;49.540;11.932;2023-07-13T04:14:28;95361.47;;;18.57;100.00
11038;BME280;5572;49.540;11.932;2023-07-13T04:16:55;95381.34;;;18.54;100.00
11038;BME280;5572;49.540;11.932;2023-07-13T04:19:23;95383.84;;;18.62;100.00
11038;BME280;5572;49.540;11.932;2023-07-13T04:21:49;95395.94;;;18.87;100.00
11038;BME280;5572;49.540;11.932;2023-07-13T04:24:16;95419.72;;;18.80;100.00
11038;BME280;5572;49.540;11.932;2023-07-13T04:26:42;95434.91;;;18.77;100.00
11038;BME280;5572;49.540;11.932;2023-07-13T04:29:09;95452.16;;;18.78;100.00
11038;BME280;5572;49.540;11.932;2023-07-13T04:31:37;95465.94;;;18.85;100.00
11038;BME280;5572;49.540;11.932;2023-07-13T04:34:03;95482.91;;;18.94;100.00
11038;BME280;5572;49.540;11.932;2023-07-13T04:36:30;95568.91;;;18.67;100.00
11038;BME280;5572;49.540;11.932;2023-07-13T04:38:57;95566.53;;;18.88;100.00
11038;BME280;5572;49.540;11.932;2023-07-13T04:41:23;95609.06;;;18.82;100.00
11038;BME280;5572;49.540;11.932;2023-07-13T04:43:50;95601.81;;;19.11;100.00
11038;BME280;5572;49.540;11.932;2023-07-13T04:46:17;95651.81;;;19.08;100.00
11038;BME280;5572;49.540;11.932;2023-07-13T04:48:46;95665.38;;;19.43;100.00
11038;BME280;5572;49.540;11.932;2023-07-13T04:51:12;95698.47;;;19.57;100.00
11038;BME280;5572;49.540;11.932;2023-07-13T04:53:39;95698.84;;;20.00;100.00
11038;BME280;5572;49.540;11.932;2023-07-13T04:56:05;95727.31;;;19.47;100.00
11038;BME280;5572;49.540;11.932;2023-07-13T04:58:33;95739.44;;;19.69;100.00
11038;BME280;5572;49.540;11.932;2023-07-13T05:01:00;95767.44;;;19.36;100.00
11038;BME280;5572;49.540;11.932;2023-07-13T05:03:27;95782.38;;;19.01;100.00
11038;BME280;5572;49.540;11.932;2023-07-13T05:05:59;95775.97;;;19.12;100.00
11038;BME280;5572;49.540;11.932;2023-07-13T05:08:26;95788.88;;;19.31;100.00
11038;BME280;5572;49.540;11.932;2023-07-13T05:10:53;95812.31;;;19.09;100.00
11038;BME280;5572;49.540;11.932;2023-07-13T05:13:19;95825.03;;;19.17;100.00
11038;BME280;5572;49.540;11.932;2023-07-13T05:15:47;95826.31;;;19.23;100.00
11038;BME280;5572;49.540;11.932;2023-07-13T05:18:14;95815.81;;;20.60;100.00
11038;BME280;5572;49.540;11.932;2023-07-13T05:20:40;95877.47;;;20.88;100.00
11038;BME280;5572;49.540;11.932;2023-07-13T05:23:08;95915.22;;;21.50;100.00
11038;BME280;5572;49.540;11.932;2023-07-13T05:25:35;95946.19;;;22.42;100.00
11038;BME280;5572;49.540;11.932;2023-07-13T05:28:01;96025.84;;;21.10;100.00
11038;BME280;5572;49.540;11.932;2023-07-13T05:30:28;96005.56;;;23.19;100.00
11038;BME280;5572;49.540;11.932;2023-07-13T05:32:54;95967.66;;;24.93;100.00
11038;BME280;5572;49.540;11.932;2023-07-13T05:35:21;95982.44;;;23.98;100.00
11038;BME280;5572;49.540;11.932;2023-07-13T05:37:48;95958.16;;;24.52;100.00
11038;BME280;5572;49.540;11.932;2023-07-13T05:40:16;95983.34;;;24.30;100.00
11038;BME280;5572;49.540;11.932;2023-07-13T05:42:42;96036.22;;;23.60;100.00
11038;BME280;5572;49.540;11.932;2023-07-13T05:45:09;96071.31;;;23.13;100.00
11038;BME280;5572;49.540;11.932;2023-07-13T05:47:36;96017.78;;;24.49;100.00
11038;BME280;5572;49.540;11.932;2023-07-13T05:50:02;96074.06;;;22.73;100.00
11038;BME280;5572;49.540;11.932;2023-07-13T05:52:30;96087.72;;;22.99;100.00
11038;BME280;5572;49.540;11.932;2023-07-13T05:54:56;96015.34;;;24.41;100.00
11038;BME280;5572;49.540;11.932;2023-07-13T05:57:24;95967.63;;;25.59;100.00
11038;BME280;5572;49.540;11.932;2023-07-13T05:59:51;96013.03;;;24.53;100.00
11038;BME280;5572;49.540;11.932;2023-07-13T06:02:17;95984.28;;;25.34;100.00
11038;BME280;5572;49.540;11.932;2023-07-13T06:04:44;96036.53;;;24.13;100.00
11038;BME280;5572;49.540;11.932;2023-07-13T06:07:10;96049.25;;;24.31;100.00
11038;BME280;5572;49.540;11.932;2023-07-13T06:09:37;96058.19;;;24.00;100.00
11038;BME280;5572;49.540;11.932;2023-07-13T06:12:04;96063.03;;;24.21;100.00
11038;BME280;5572;49.540;11.932;2023-07-13T06:14:32;95972.00;;;25.46;100.00
11038;BME280;5572;49.540;11.932;2023-07-13T06:16:59;96013.47;;;24.80;100.00
11038;BME280;5572;49.540;11.932;2023-07-13T06:19:26;96002.44;;;25.49;100.00
11038;BME280;5572;49.540;11.932;2023-07-13T06:21:52;95935.50;;;26.64;100.00
11038;BME280;5572;49.540;11.932;2023-07-13T06:24:19;95884.59;;;26.88;100.00
11038;BME280;5572;49.540;11.932;2023-07-13T06:26:45;95844.47;;;27.36;100.00
11038;BME280;5572;49.540;11.932;2023-07-13T06:29:12;95943.41;;;26.66;100.00
11038;BME280;5572;49.540;11.932;2023-07-13T06:31:40;95868.97;;;27.45;100.00
11038;BME280;5572;49.540;11.932;2023-07-13T06:34:06;95957.66;;;25.89;100.00
11038;BME280;5572;49.540;11.932;2023-07-13T06:36:33;96020.25;;;25.38;100.00
11038;BME280;5572;49.540;11.932;2023-07-13T06:39:01;96117.94;;;24.33;100.00
11038;BME280;5572;49.540;11.932;2023-07-13T06:41:28;96099.72;;;24.18;100.00
11038;BME280;5572;49.540;11.932;2023-07-13T06:43:56;96144.25;;;24.84;100.00
11038;BME280;5572;49.540;11.932;2023-07-13T06:46:22;96130.03;;;24.78;100.00
11038;BME280;5572;49.540;11.932;2023-07-13T06:48:51;96075.22;;;25.57;100.00
11038;BME280;5572;49.540;11.932;2023-07-13T06:51:17;96103.53;;;24.74;100.00
11038;BME280;5572;49.540;11.932;2023-07-13T06:53:44;96186.84;;;24.69;100.00
11038;BME280;5572;49.540;11.932;2023-07-13T06:56:11;96113.97;;;25.29;100.00
11038;BME280;5572;49.540;11.932;2023-07-13T06:58:38;96118.31;;;25.58;100.00
11038;BME280;5572;49.540;11.932;2023-07-13T07:01:04;96166.00;;;24.92;100.00
11038;BME280;5572;49.540;11.932;2023-07-13T07:03:31;96147.44;;;24.96;100.00
11038;BME280;5572;49.540;11.932;2023-07-13T07:06:01;96196.91;;;25.08;100.00
11038;BME280;5572;49.540;11.932;2023-07-13T07:08:28;96310.91;;;22.89;100.00
11038;BME280;5572;49.540;11.932;2023-07-13T07:10:54;96288.69;;;24.10;100.00
11038;BME280;5572;49.540;11.932;2023-07-13T07:13:21;96245.09;;;25.07;100.00
11038;BME280;5572;49.540;11.932;2023-07-13T07:15:49;96277.22;;;24.54;100.00
11038;BME280;5572;49.540;11.932;2023-07-13T07:18:16;96304.28;;;24.35;100.00
11038;BME280;5572;49.540;11.932;2023-07-13T07:20:43;96405.47;;;22.89;100.00
11038;BME280;5572;49.540;11.932;2023-07-13T07:23:11;96240.91;;;25.51;100.00
11038;BME280;5572;49.540;11.932;2023-07-13T07:25:37;96294.69;;;25.47;100.00
11038;BME280;5572;49.540;11.932;2023-07-13T07:28:07;96182.06;;;25.82;100.00
11038;BME280;5572;49.540;11.932;2023-07-13T07:30:34;96257.09;;;24.07;100.00
11038;BME280;5572;49.540;11.932;2023-07-13T07:33:00;96342.94;;;23.92;100.00
11038;BME280;5572;49.540;11.932;2023-07-13T07:35:27;96369.34;;;23.56;100.00
11038;BME280;5572;49.540;11.932;2023-07-13T07:37:54;96304.13;;;24.61;100.00
11038;BME280;5572;49.540;11.932;2023-07-13T07:40:22;96222.34;;;25.55;100.00
11038;BME280;5572;49.540;11.932;2023-07-13T07:42:48;96163.78;;;25.29;100.00
11038;BME280;5572;49.540;11.932;2023-07-13T07:45:15;96287.47;;;24.50;100.00
11038;BME280;5572;49.540;11.932;2023-07-13T07:47:42;96203.72;;;25.35;100.00
11038;BME280;5572;49.540;11.932;2023-07-13T07:50:09;96399.66;;;23.20;100.00
11038;BME280;5572;49.540;11.932;2023-07-13T07:52:36;96379.06;;;23.14;100.00
11038;BME280;5572;49.540;11.932;2023-07-13T07:55:03;96403.13;;;22.65;100.00
11038;BME280;5572;49.540;11.932;2023-07-13T07:57:31;96461.72;;;23.07;100.00
11038;BME280;5572;49.540;11.932;2023-07-13T07:59:58;96445.38;;;22.73;100.00
11038;BME280;5572;49.540;11.932;2023-07-13T08:02:25;96462.69;;;22.96;100.00
11038;BME280;5572;49.540;11.932;2023-07-13T08:04:52;96389.88;;;23.26;100.00
11038;BME280;5572;49.540;11.932;2023-07-13T08:07:18;96429.25;;;22.30;100.00
11038;BME280;5572;49.540;11.932;2023-07-13T08:09:45;96469.72;;;22.93;100.00
11038;BME280;5572;49.540;11.932;2023-07-13T08:12:12;96460.38;;;22.75;100.00
11038;BME280;5572;49.540;11.932;2023-07-13T08:14:40;96362.38;;;24.42;100.00
11038;BME280;5572;49.540;11.932;2023-07-13T08:17:06;96401.94;;;23.15;100.00
11038;BME280;5572;49.540;11.932;2023-07-13T08:19:33;96386.44;;;23.36;100.00
11038;BME280;5572;49.540;11.932;2023-07-13T08:22:00;96474.34;;;23.63;100.00
11038;BME280;5572;49.540;11.932;2023-07-13T08:24:26;96411.53;;;24.62;100.00
11038;BME280;5572;49.540;11.932;2023-07-13T08:26:53;96336.94;;;25.30;100.00
11038;BME280;5572;49.540;11.932;2023-07-13T08:29:20;96235.88;;;26.06;100.00
11038;BME280;5572;49.540;11.932;2023-07-13T08:31:48;96139.25;;;25.52;100.00
11038;BME280;5572;49.540;11.932;2023-07-13T08:34:15;96309.50;;;23.64;100.00
11038;BME280;5572;49.540;11.932;2023-07-13T08:36:42;96349.59;;;23.84;100.00
11038;BME280;5572;49.540;11.932;2023-07-13T08:39:08;96344.50;;;23.89;100.00
11038;BME280;5572;49.540;11.932;2023-07-13T08:41:35;96370.25;;;22.79;100.00
11038;BME280;5572;49.540;11.932;2023-07-13T08:44:04;96428.78;;;23.76;100.00
11038;BME280;5572;49.540;11.932;2023-07-13T08:46:34;96309.75;;;23.52;100.00
11038;BME280;5572;49.540;11.932;2023-07-13T08:49:05;96311.47;;;24.43;100.00
11038;BME280;5572;49.540;11.932;2023-07-13T08:51:40;96329.53;;;23.90;100.00
11038;BME280;5572;49.540;11.932;2023-07-13T08:54:17;96385.66;;;24.41;100.00
11038;BME280;5572;49.540;11.932;2023-07-13T08:56:46;96269.56;;;24.98;100.00
11038;BME280;5572;49.540;11.932;2023-07-13T08:59:16;96284.88;;;24.82;100.00
11038;BME280;5572;49.540;11.932;2023-07-13T09:02:08;96355.94;;;23.55;100.00
11038;BME280;5572;49.540;11.932;2023-07-13T09:04:45;96390.06;;;23.73;100.00
11038;BME280;5572;49.540;11.932;2023-07-13T09:07:24;96239.31;;;24.05;100.00
11038;BME280;5572;49.540;11.932;2023-07-13T09:10:02;96238.66;;;24.86;100.00
11038;BME280;5572;49.540;11.932;2023-07-13T09:12:40;96191.69;;;24.89;100.00
11038;BME280;5572;49.540;11.932;2023-07-13T09:15:23;96117.72;;;24.72;100.00
11038;BME280;5572;49.540;11.932;2023-07-13T09:17:52;96246.88;;;25.50;100.00
11038;BME280;5572;49.540;11.932;2023-07-13T09:20:26;96094.88;;;24.89;100.00
11038;BME280;5572;49.540;11.932;2023-07-13T09:22:55;95979.47;;;25.70;100.00
11038;BME280;5572;49.540;11.932;2023-07-13T09:25:29;96088.59;;;25.06;100.00
11038;BME280;5572;49.540;11.932;2023-07-13T09:28:00;96141.22;;;25.34;100.00
11038;BME280;5572;49.540;11.932;2023-07-13T09:30:34;96145.97;;;24.34;100.00
11038;BME280;5572;49.540;11.932;2023-07-13T09:33:03;96259.06;;;23.67;100.00
11038;BME280;5572;49.540;11.932;2023-07-13T09:35:31;96344.69;;;24.50;100.00
11038;BME280;5572;49.540;11.932;2023-07-13T09:38:01;96037.19;;;24.88;100.00
11038;BME280;5572;49.540;11.932;2023-07-13T09:40:38;96163.78;;;25.36;100.00
11038;BME280;5572;49.540;11.932;2023-07-13T09:43:08;95936.59;;;26.77;100.00
11038;BME280;5572;49.540;11.932;2023-07-13T09:45:37;96132.16;;;25.30;100.00
11038;BME280;5572;49.540;11.932;2023-07-13T09:48:05;96062.53;;;25.98;100.00
11038;BME280;5572;49.540;11.932;2023-07-13T09:50:34;96084.31;;;25.47;100.00
11038;BME280;5572;49.540;11.932;2023-07-13T09:53:01;96308.16;;;25.52;100.00
11038;BME280;5572;49.540;11.932;2023-07-13T09:55:30;96081.00;;;26.35;100.00
11038;BME280;5572;49.540;11.932;2023-07-13T09:57:58;96034.47;;;25.68;100.00
11038;BME280;5572;49.540;11.932;2023-07-13T10:00:27;96313.13;;;25.12;100.00
11038;BME280;5572;49.540;11.932;2023-07-13T10:03:02;96483.13;;;24.34;100.00
11038;BME280;5572;49.540;11.932;2023-07-13T10:05:39;96369.91;;;23.69;100.00
11038;BME280;5572;49.540;11.932;2023-07-13T10:08:09;96357.25;;;24.94;100.00
11038;BME280;5572;49.540;11.932;2023-07-13T10:10:41;96239.00;;;26.60;100.00
11038;BME280;5572;49.540;11.932;2023-07-13T10:13:24;96290.69;;;24.59;100.00
11038;BME280;5572;49.540;11.932;2023-07-13T10:15:51;96261.03;;;24.56;100.00
11038;BME280;5572;49.540;11.932;2023-07-13T10:18:18;96121.66;;;24.61;100.00
11038;BME280;5572;49.540;11.932;2023-07-13T10:20:47;96267.31;;;24.00;100.00
11038;BME280;5572;49.540;11.932;2023-07-13T10:23:21;96252.06;;;24.77;100.00
11038;BME280;5572;49.540;11.932;2023-07-13T10:25:50;96278.09;;;24.69;100.00
11038;BME280;5572;49.540;11.932;2023-07-13T10:28:25;96106.84;;;25.87;100.00
11038;BME280;5572;49.540;11.932;2023-07-13T10:30:53;96140.06;;;26.18;100.00
11038;BME280;5572;49.540;11.932;2023-07-13T10:33:22;96193.28;;;24.97;100.00
11038;BME280;5572;49.540;11.932;2023-07-13T10:35:54;96285.94;;;24.60;100.00
11038;BME280;5572;49.540;11.932;2023-07-13T10:38:23;96140.06;;;25.42;100.00
11038;BME280;5572;49.540;11.932;2023-07-13T10:40:55;96094.97;;;25.52;100.00
11038;BME280;5572;49.540;11.932;2023-07-13T10:43:26;96106.84;;;26.01;100.00
11038;BME280;5572;49.540;11.932;2023-07-13T10:45:56;96169.16;;;24.94;100.00
11038;BME280;5572;49.540;11.932;2023-07-13T10:48:23;96211.28;;;25.69;100.00
11038;BME280;5572;49.540;11.932;2023-07-13T10:50:53;96197.03;;;25.53;100.00
11038;BME280;5572;49.540;11.932;2023-07-13T10:53:28;96207.69;;;25.62;100.00
11038;BME280;5572;49.540;11.932;2023-07-13T10:55:58;96266.34;;;26.65;100.00
11038;BME280;5572;49.540;11.932;2023-07-13T10:58:32;96011.78;;;26.93;100.00
11038;BME280;5572;49.540;11.932;2023-07-13T11:01:04;96109.25;;;25.85;100.00
11038;BME280;5572;49.540;11.932;2023-07-13T11:03:36;96200.16;;;26.67;100.00
11038;BME280;5572;49.540;11.932;2023-07-13T11:06:11;96329.34;;;26.57;100.00
11038;BME280;5572;49.540;11.932;2023-07-13T11:08:51;96171.22;;;26.71;100.00
11038;BME280;5572;49.540;11.932;2023-07-13T11:11:38;96179.28;;;27.34;100.00
11038;BME280;5572;49.540;11.932;2023-07-13T11:14:14;96370.53;;;26.62;100.00
11038;BME280;5572;49.540;11.932;2023-07-13T11:16:51;96243.41;;;26.29;100.00
11038;BME280;5572;49.540;11.932;2023-07-13T11:19:38;96413.72;;;27.26;100.00
11038;BME280;5572;49.540;11.932;2023-07-13T11:22:22;96397.88;;;26.60;100.00
11038;BME280;5572;49.540;11.932;2023-07-13T11:24:52;96287.69;;;27.06;100.00
11038;BME280;5572;49.540;11.932;2023-07-13T11:27:42;96315.50;;;26.57;100.00
11038;BME280;5572;49.540;11.932;2023-07-13T11:30:21;96350.72;;;26.88;100.00
11038;BME280;5572;49.540;11.932;2023-07-13T11:32:51;96459.72;;;27.34;100.00
11038;BME280;5572;49.540;11.932;2023-07-13T11:35:23;96572.38;;;26.08;100.00
11038;BME280;5572;49.540;11.932;2023-07-13T11:37:51;96520.31;;;26.59;100.00
11038;BME280;5572;49.540;11.932;2023-07-13T11:40:19;96604.44;;;27.01;100.00
11038;BME280;5572;49.540;11.932;2023-07-13T11:42:48;96572.75;;;27.02;100.00
11038;BME280;5572;49.540;11.932;2023-07-13T11:45:19;96498.94;;;27.85;100.00
11038;BME280;5572;49.540;11.932;2023-07-13T11:47:48;96487.47;;;26.85;100.00
11038;BME280;5572;49.540;11.932;2023-07-13T11:50:18;96458.72;;;28.13;100.00
11038;BME280;5572;49.540;11.932;2023-07-13T11:52:45;96478.97;;;26.15;100.00
11038;BME280;5572;49.540;11.932;2023-07-13T11:55:17;96608.69;;;25.93;100.00
11038;BME280;5572;49.540;11.932;2023-07-13T11:57:47;96619.53;;;25.65;100.00
11038;BME280;5572;49.540;11.932;2023-07-13T12:00:18;96749.81;;;26.76;100.00
11038;BME280;5572;49.540;11.932;2023-07-13T12:02:47;96530.56;;;26.44;100.00
11038;BME280;5572;49.540;11.932;2023-07-13T12:05:16;96799.94;;;26.00;100.00
11038;BME280;5572;49.540;11.932;2023-07-13T12:07:43;96705.84;;;26.17;100.00
11038;BME280;5572;49.540;11.932;2023-07-13T12:10:19;96360.06;;;27.60;100.00
11038;BME280;5572;49.540;11.932;2023-07-13T12:12:48;96514.47;;;27.02;100.00
11038;BME280;5572;49.540;11.932;2023-07-13T12:15:14;96571.19;;;27.57;100.00
11038;BME280;5572;49.540;11.932;2023-07-13T12:17:41;96359.31;;;27.63;100.00
11038;BME280;5572;49.540;11.932;2023-07-13T12:20:19;96412.94;;;27.22;100.00
11038;BME280;5572;49.540;11.932;2023-07-13T12:22:46;96508.03;;;27.95;100.00
11038;BME280;5572;49.540;11.932;2023-07-13T12:25:15;96685.13;;;26.58;100.00
11038;BME280;5572;49.540;11.932;2023-07-13T12:27:41;96520.97;;;26.28;100.00
11038;BME280;5572;49.540;11.932;2023-07-13T12:30:24;96651.47;;;25.95;100.00
11038;BME280;5572;49.540;11.932;2023-07-13T12:32:59;96861.31;;;26.88;100.00
11038;BME280;5572;49.540;11.932;2023-07-13T12:35:28;96560.78;;;26.77;100.00
11038;BME280;5572;49.540;11.932;2023-07-13T12:37:57;96749.63;;;27.08;100.00
11038;BME280;5572;49.540;11.932;2023-07-13T12:40:31;96769.22;;;26.69;100.00
11038;BME280;5572;49.540;11.932;2023-07-13T12:42:58;96834.84;;;26.47;100.00
11038;BME280;5572;49.540;11.932;2023-07-13T12:45:37;96800.16;;;27.49;100.00
11038;BME280;5572;49.540;11.932;2023-07-13T12:48:05;96740.66;;;26.65;100.00
11038;BME280;5572;49.540;11.932;2023-07-13T12:50:38;96825.00;;;26.13;100.00
11038;BME280;5572;49.540;11.932;2023-07-13T12:53:12;96973.69;;;26.28;100.00
11038;BME280;5572;49.540;11.932;2023-07-13T12:55:46;96752.47;;;27.29;100.00
11038;BME280;5572;49.540;11.932;2023-07-13T12:58:18;96698.63;;;26.59;100.00